sensor_id;sensor_type;location;lat;lon;timestamp;P1;durP1;ratioP1;P2;durP2;ratioP2
41446;SDS011;27185;52.040;4.490;2023-05-10T00:02:14;26.88;;;18.42;;
41446;SDS011;27185;52.040;4.490;2023-05-10T00:05:00;26.27;;;17.98;;
41446;SDS011;27185;52.040;4.490;2023-05-10T00:07:46;26.73;;;17.45;;
41446;SDS011;27185;52.040;4.490;2023-05-10T00:10:31;24.20;;;16.73;;
41446;SDS011;27185;52.040;4.490;2023-05-10T00:13:17;26.80;;;17.35;;
41446;SDS011;27185;52.040;4.490;2023-05-10T00:16:02;29.17;;;18.40;;
41446;SDS011;27185;52.040;4.490;2023-05-10T00:18:48;30.50;;;20.05;;
41446;SDS011;27185;52.040;4.490;2023-05-10T00:21:34;31.33;;;21.70;;
41446;SDS011;27185;52.040;4.490;2023-05-10T00:24:19;30.75;;;21.15;;
41446;SDS011;27185;52.040;4.490;2023-05-10T00:27:05;29.95;;;20.98;;
41446;SDS011;27185;52.040;4.490;2023-05-10T00:29:50;30.92;;;21.48;;
41446;SDS011;27185;52.040;4.490;2023-05-10T00:32:36;31.58;;;22.00;;
41446;SDS011;27185;52.040;4.490;2023-05-10T00:35:22;29.95;;;20.70;;
41446;SDS011;27185;52.040;4.490;2023-05-10T00:38:07;28.63;;;20.45;;
41446;SDS011;27185;52.040;4.490;2023-05-10T00:40:53;41.22;;;23.73;;
41446;SDS011;27185;52.040;4.490;2023-05-10T00:43:39;37.20;;;25.10;;
41446;SDS011;27185;52.040;4.490;2023-05-10T00:46:24;37.53;;;22.63;;
41446;SDS011;27185;52.040;4.490;2023-05-10T00:49:10;32.92;;;22.45;;
41446;SDS011;27185;52.040;4.490;2023-05-10T00:51:56;36.80;;;23.63;;
41446;SDS011;27185;52.040;4.490;2023-05-10T00:54:42;44.60;;;28.33;;
41446;SDS011;27185;52.040;4.490;2023-05-10T00:57:28;50.33;;;31.08;;
41446;SDS011;27185;52.040;4.490;2023-05-10T01:00:13;56.55;;;31.85;;
41446;SDS011;27185;52.040;4.490;2023-05-10T01:03:03;97.03;;;34.95;;
41446;SDS011;27185;52.040;4.490;2023-05-10T01:05:48;109.03;;;33.70;;
41446;SDS011;27185;52.040;4.490;2023-05-10T01:08:34;112.97;;;33.08;;
41446;SDS011;27185;52.040;4.490;2023-05-10T01:11:20;139.27;;;30.73;;
41446;SDS011;27185;52.040;4.490;2023-05-10T01:14:06;128.93;;;30.88;;
41446;SDS011;27185;52.040;4.490;2023-05-10T01:16:53;96.85;;;26.67;;
41446;SDS011;27185;52.040;4.490;2023-05-10T01:19:39;110.97;;;28.33;;
41446;SDS011;27185;52.040;4.490;2023-05-10T01:22:30;92.15;;;29.70;;
41446;SDS011;27185;52.040;4.490;2023-05-10T01:32:11;80.18;;;31.17;;
41446;SDS011;27185;52.040;4.490;2023-05-10T01:35:03;69.72;;;30.13;;
41446;SDS011;27185;52.040;4.490;2023-05-10T01:37:52;66.97;;;30.55;;
41446;SDS011;27185;52.040;4.490;2023-05-10T01:40:56;64.38;;;29.45;;
41446;SDS011;27185;52.040;4.490;2023-05-10T01:47:01;57.28;;;27.42;;
41446;SDS011;27185;52.040;4.490;2023-05-10T01:49:53;57.75;;;27.30;;
41446;SDS011;27185;52.040;4.490;2023-05-10T01:52:44;53.70;;;26.55;;
41446;SDS011;27185;52.040;4.490;2023-05-10T01:55:43;54.65;;;24.98;;
41446;SDS011;27185;52.040;4.490;2023-05-10T01:58:32;46.90;;;25.60;;
41446;SDS011;27185;52.040;4.490;2023-05-10T02:01:19;58.83;;;27.35;;
41446;SDS011;27185;52.040;4.490;2023-05-10T02:04:07;60.33;;;25.33;;
41446;SDS011;27185;52.040;4.490;2023-05-10T02:06:54;51.90;;;25.30;;
41446;SDS011;27185;52.040;4.490;2023-05-10T02:09:41;52.53;;;25.33;;
41446;SDS011;27185;52.040;4.490;2023-05-10T02:12:34;51.53;;;26.05;;
41446;SDS011;27185;52.040;4.490;2023-05-10T02:15:22;50.35;;;26.92;;
41446;SDS011;27185;52.040;4.490;2023-05-10T02:18:09;54.47;;;26.63;;
41446;SDS011;27185;52.040;4.490;2023-05-10T02:20:56;55.08;;;25.90;;
41446;SDS011;27185;52.040;4.490;2023-05-10T02:23:43;55.10;;;27.23;;
41446;SDS011;27185;52.040;4.490;2023-05-10T02:26:31;53.88;;;26.38;;
41446;SDS011;27185;52.040;4.490;2023-05-10T02:29:20;65.63;;;29.80;;
41446;SDS011;27185;52.040;4.490;2023-05-10T02:32:05;52.72;;;28.02;;
41446;SDS011;27185;52.040;4.490;2023-05-10T02:34:51;52.65;;;28.38;;
41446;SDS011;27185;52.040;4.490;2023-05-10T02:37:38;54.13;;;29.92;;
41446;SDS011;27185;52.040;4.490;2023-05-10T02:40:25;54.83;;;29.17;;
41446;SDS011;27185;52.040;4.490;2023-05-10T02:43:12;50.90;;;27.90;;
41446;SDS011;27185;52.040;4.490;2023-05-10T02:46:00;49.15;;;29.02;;
41446;SDS011;27185;52.040;4.490;2023-05-10T02:48:47;52.88;;;30.63;;
41446;SDS011;27185;52.040;4.490;2023-05-10T02:51:34;49.58;;;27.42;;
41446;SDS011;27185;52.040;4.490;2023-05-10T02:54:24;47.80;;;27.63;;
41446;SDS011;27185;52.040;4.490;2023-05-10T02:57:20;44.80;;;27.08;;
41446;SDS011;27185;52.040;4.490;2023-05-10T03:00:11;49.67;;;28.15;;
41446;SDS011;27185;52.040;4.490;2023-05-10T03:02:57;44.63;;;25.65;;
41446;SDS011;27185;52.040;4.490;2023-05-10T03:05:42;40.47;;;26.23;;
41446;SDS011;27185;52.040;4.490;2023-05-10T03:08:28;41.65;;;25.10;;
41446;SDS011;27185;52.040;4.490;2023-05-10T03:17:40;33.03;;;20.95;;
41446;SDS011;27185;52.040;4.490;2023-05-10T03:20:47;37.42;;;23.60;;
41446;SDS011;27185;52.040;4.490;2023-05-10T03:23:35;34.30;;;21.40;;
41446;SDS011;27185;52.040;4.490;2023-05-10T03:26:30;34.20;;;23.17;;
41446;SDS011;27185;52.040;4.490;2023-05-10T03:29:16;36.83;;;24.25;;
41446;SDS011;27185;52.040;4.490;2023-05-10T03:32:03;47.97;;;26.83;;
41446;SDS011;27185;52.040;4.490;2023-05-10T03:34:48;43.22;;;30.42;;
41446;SDS011;27185;52.040;4.490;2023-05-10T03:37:34;47.92;;;30.50;;
41446;SDS011;27185;52.040;4.490;2023-05-10T03:40:20;49.08;;;31.40;;
41446;SDS011;27185;52.040;4.490;2023-05-10T03:43:06;38.13;;;27.60;;
41446;SDS011;27185;52.040;4.490;2023-05-10T03:45:51;43.08;;;27.15;;
41446;SDS011;27185;52.040;4.490;2023-05-10T03:48:37;32.90;;;23.63;;
41446;SDS011;27185;52.040;4.490;2023-05-10T03:51:23;38.03;;;25.33;;
41446;SDS011;27185;52.040;4.490;2023-05-10T03:54:12;38.00;;;25.65;;
41446;SDS011;27185;52.040;4.490;2023-05-10T03:56:58;44.70;;;26.55;;
41446;SDS011;27185;52.040;4.490;2023-05-10T03:59:43;40.00;;;28.27;;
41446;SDS011;27185;52.040;4.490;2023-05-10T04:02:30;45.63;;;29.15;;
41446;SDS011;27185;52.040;4.490;2023-05-10T04:05:15;40.03;;;27.80;;
41446;SDS011;27185;52.040;4.490;2023-05-10T04:08:01;44.47;;;30.08;;
41446;SDS011;27185;52.040;4.490;2023-05-10T04:10:47;48.20;;;29.50;;
41446;SDS011;27185;52.040;4.490;2023-05-10T04:13:33;49.75;;;32.05;;
41446;SDS011;27185;52.040;4.490;2023-05-10T04:16:18;43.35;;;29.42;;
41446;SDS011;27185;52.040;4.490;2023-05-10T04:19:04;38.20;;;26.77;;
41446;SDS011;27185;52.040;4.490;2023-05-10T04:21:49;42.53;;;27.35;;
41446;SDS011;27185;52.040;4.490;2023-05-10T04:24:35;36.75;;;26.63;;
41446;SDS011;27185;52.040;4.490;2023-05-10T04:27:21;36.97;;;25.30;;
41446;SDS011;27185;52.040;4.490;2023-05-10T04:30:06;32.08;;;23.58;;
41446;SDS011;27185;52.040;4.490;2023-05-10T04:32:52;37.85;;;25.27;;
41446;SDS011;27185;52.040;4.490;2023-05-10T04:35:38;30.63;;;19.80;;
41446;SDS011;27185;52.040;4.490;2023-05-10T04:38:25;22.63;;;16.48;;
41446;SDS011;27185;52.040;4.490;2023-05-10T04:41:10;25.58;;;17.23;;
41446;SDS011;27185;52.040;4.490;2023-05-10T04:43:56;24.05;;;17.15;;
41446;SDS011;27185;52.040;4.490;2023-05-10T04:46:42;27.35;;;17.05;;
41446;SDS011;27185;52.040;4.490;2023-05-10T04:49:27;28.02;;;18.00;;
41446;SDS011;27185;52.040;4.490;2023-05-10T04:52:14;30.08;;;19.80;;
41446;SDS011;27185;52.040;4.490;2023-05-10T04:55:02;26.70;;;15.98;;
41446;SDS011;27185;52.040;4.490;2023-05-10T04:57:48;23.70;;;12.15;;
41446;SDS011;27185;52.040;4.490;2023-05-10T05:00:33;18.00;;;10.07;;
41446;SDS011;27185;52.040;4.490;2023-05-10T05:03:19;14.65;;;9.13;;
41446;SDS011;27185;52.040;4.490;2023-05-10T05:06:04;17.50;;;8.60;;
41446;SDS011;27185;52.040;4.490;2023-05-10T05:08:50;19.08;;;9.27;;
41446;SDS011;27185;52.040;4.490;2023-05-10T05:11:36;13.50;;;6.68;;
41446;SDS011;27185;52.040;4.490;2023-05-10T05:14:22;15.30;;;7.55;;
41446;SDS011;27185;52.040;4.490;2023-05-10T05:17:09;13.38;;;6.90;;
41446;SDS011;27185;52.040;4.490;2023-05-10T05:19:55;12.75;;;6.22;;
41446;SDS011;27185;52.040;4.490;2023-05-10T05:22:40;11.07;;;6.95;;
41446;SDS011;27185;52.040;4.490;2023-05-10T05:25:26;10.68;;;6.88;;
41446;SDS011;27185;52.040;4.490;2023-05-10T05:28:12;9.57;;;6.30;;
41446;SDS011;27185;52.040;4.490;2023-05-10T05:30:57;10.70;;;6.65;;
41446;SDS011;27185;52.040;4.490;2023-05-10T05:33:43;8.80;;;6.35;;
41446;SDS011;27185;52.040;4.490;2023-05-10T05:36:28;10.60;;;7.38;;
41446;SDS011;27185;52.040;4.490;2023-05-10T05:39:14;13.10;;;8.48;;
41446;SDS011;27185;52.040;4.490;2023-05-10T05:41:59;10.68;;;6.75;;
41446;SDS011;27185;52.040;4.490;2023-05-10T05:44:45;10.95;;;7.25;;
41446;SDS011;27185;52.040;4.490;2023-05-10T05:47:30;11.50;;;7.20;;
41446;SDS011;27185;52.040;4.490;2023-05-10T05:50:16;10.68;;;7.30;;
41446;SDS011;27185;52.040;4.490;2023-05-10T05:53:02;11.82;;;7.22;;
41446;SDS011;27185;52.040;4.490;2023-05-10T05:55:54;10.20;;;6.90;;
41446;SDS011;27185;52.040;4.490;2023-05-10T05:58:41;11.30;;;7.45;;
41446;SDS011;27185;52.040;4.490;2023-05-10T06:01:26;9.35;;;6.63;;
41446;SDS011;27185;52.040;4.490;2023-05-10T06:04:12;11.07;;;8.07;;
41446;SDS011;27185;52.040;4.490;2023-05-10T06:06:57;10.60;;;7.90;;
41446;SDS011;27185;52.040;4.490;2023-05-10T06:09:43;11.82;;;7.78;;
41446;SDS011;27185;52.040;4.490;2023-05-10T06:12:28;9.73;;;7.18;;
41446;SDS011;27185;52.040;4.490;2023-05-10T06:15:14;11.77;;;7.75;;
41446;SDS011;27185;52.040;4.490;2023-05-10T06:18:00;9.07;;;7.32;;
41446;SDS011;27185;52.040;4.490;2023-05-10T06:20:45;8.80;;;6.53;;
41446;SDS011;27185;52.040;4.490;2023-05-10T06:23:31;10.77;;;6.88;;
41446;SDS011;27185;52.040;4.490;2023-05-10T06:26:17;9.70;;;6.75;;
41446;SDS011;27185;52.040;4.490;2023-05-10T06:29:02;9.70;;;6.07;;
41446;SDS011;27185;52.040;4.490;2023-05-10T06:31:48;8.48;;;6.50;;
41446;SDS011;27185;52.040;4.490;2023-05-10T06:34:33;10.00;;;5.80;;
41446;SDS011;27185;52.040;4.490;2023-05-10T06:37:19;6.93;;;4.90;;
41446;SDS011;27185;52.040;4.490;2023-05-10T06:40:05;8.30;;;5.65;;
41446;SDS011;27185;52.040;4.490;2023-05-10T06:42:51;6.75;;;5.45;;
41446;SDS011;27185;52.040;4.490;2023-05-10T06:45:37;7.63;;;4.90;;
41446;SDS011;27185;52.040;4.490;2023-05-10T06:48:22;6.18;;;4.22;;
41446;SDS011;27185;52.040;4.490;2023-05-10T06:51:08;7.25;;;5.05;;
41446;SDS011;27185;52.040;4.490;2023-05-10T06:53:54;6.40;;;4.93;;
41446;SDS011;27185;52.040;4.490;2023-05-10T06:56:39;7.43;;;5.03;;
41446;SDS011;27185;52.040;4.490;2023-05-10T06:59:25;6.65;;;5.32;;
41446;SDS011;27185;52.040;4.490;2023-05-10T07:02:10;7.50;;;4.80;;
41446;SDS011;27185;52.040;4.490;2023-05-10T07:04:56;11.63;;;5.70;;
41446;SDS011;27185;52.040;4.490;2023-05-10T07:07:42;8.65;;;5.55;;
41446;SDS011;27185;52.040;4.490;2023-05-10T07:10:28;11.18;;;6.55;;
41446;SDS011;27185;52.040;4.490;2023-05-10T07:13:13;11.00;;;6.72;;
41446;SDS011;27185;52.040;4.490;2023-05-10T07:15:59;11.32;;;7.20;;
41446;SDS011;27185;52.040;4.490;2023-05-10T07:18:46;8.55;;;6.13;;
41446;SDS011;27185;52.040;4.490;2023-05-10T07:21:32;10.07;;;6.70;;
41446;SDS011;27185;52.040;4.490;2023-05-10T07:24:17;9.95;;;5.95;;
41446;SDS011;27185;52.040;4.490;2023-05-10T07:27:03;8.77;;;5.20;;
41446;SDS011;27185;52.040;4.490;2023-05-10T07:29:49;8.88;;;5.15;;
41446;SDS011;27185;52.040;4.490;2023-05-10T07:32:34;9.15;;;5.40;;
41446;SDS011;27185;52.040;4.490;2023-05-10T07:35:20;7.55;;;4.35;;
41446;SDS011;27185;52.040;4.490;2023-05-10T07:38:06;7.40;;;4.97;;
41446;SDS011;27185;52.040;4.490;2023-05-10T07:40:51;9.30;;;5.43;;
41446;SDS011;27185;52.040;4.490;2023-05-10T07:43:37;10.25;;;5.63;;
41446;SDS011;27185;52.040;4.490;2023-05-10T07:46:22;6.78;;;5.18;;
41446;SDS011;27185;52.040;4.490;2023-05-10T07:49:08;7.70;;;5.15;;
41446;SDS011;27185;52.040;4.490;2023-05-10T07:51:53;9.38;;;5.47;;
41446;SDS011;27185;52.040;4.490;2023-05-10T07:54:39;7.20;;;5.30;;
41446;SDS011;27185;52.040;4.490;2023-05-10T07:57:25;7.95;;;5.15;;
41446;SDS011;27185;52.040;4.490;2023-05-10T08:00:12;8.45;;;5.43;;
41446;SDS011;27185;52.040;4.490;2023-05-10T08:02:58;6.72;;;5.07;;
41446;SDS011;27185;52.040;4.490;2023-05-10T08:05:44;8.85;;;5.55;;
41446;SDS011;27185;52.040;4.490;2023-05-10T08:08:29;7.45;;;5.22;;
41446;SDS011;27185;52.040;4.490;2023-05-10T08:11:15;8.55;;;5.72;;
41446;SDS011;27185;52.040;4.490;2023-05-10T08:14:02;8.90;;;4.90;;
41446;SDS011;27185;52.040;4.490;2023-05-10T08:16:47;8.27;;;5.45;;
41446;SDS011;27185;52.040;4.490;2023-05-10T08:19:33;7.95;;;4.55;;
41446;SDS011;27185;52.040;4.490;2023-05-10T08:22:19;6.53;;;4.03;;
41446;SDS011;27185;52.040;4.490;2023-05-10T08:25:04;10.63;;;4.97;;
41446;SDS011;27185;52.040;4.490;2023-05-10T08:27:50;7.55;;;4.82;;
41446;SDS011;27185;52.040;4.490;2023-05-10T08:30:36;9.48;;;5.18;;
41446;SDS011;27185;52.040;4.490;2023-05-10T08:33:22;9.20;;;5.28;;
41446;SDS011;27185;52.040;4.490;2023-05-10T08:36:07;8.43;;;4.88;;
41446;SDS011;27185;52.040;4.490;2023-05-10T08:38:53;6.28;;;4.40;;
41446;SDS011;27185;52.040;4.490;2023-05-10T08:41:39;5.30;;;3.65;;
41446;SDS011;27185;52.040;4.490;2023-05-10T08:44:30;6.25;;;3.67;;
41446;SDS011;27185;52.040;4.490;2023-05-10T08:47:20;5.90;;;3.63;;
41446;SDS011;27185;52.040;4.490;2023-05-10T08:50:06;4.50;;;3.28;;
41446;SDS011;27185;52.040;4.490;2023-05-10T08:52:53;5.55;;;3.00;;
41446;SDS011;27185;52.040;4.490;2023-05-10T08:55:42;5.00;;;2.97;;
41446;SDS011;27185;52.040;4.490;2023-05-10T08:58:28;5.05;;;3.60;;
41446;SDS011;27185;52.040;4.490;2023-05-10T09:01:13;4.53;;;3.42;;
41446;SDS011;27185;52.040;4.490;2023-05-10T09:04:01;5.28;;;3.70;;
41446;SDS011;27185;52.040;4.490;2023-05-10T09:06:47;4.90;;;3.05;;
41446;SDS011;27185;52.040;4.490;2023-05-10T09:09:33;6.25;;;3.45;;
41446;SDS011;27185;52.040;4.490;2023-05-10T09:12:19;6.43;;;3.40;;
41446;SDS011;27185;52.040;4.490;2023-05-10T09:15:05;4.28;;;2.65;;
41446;SDS011;27185;52.040;4.490;2023-05-10T09:17:52;3.63;;;2.67;;
41446;SDS011;27185;52.040;4.490;2023-05-10T09:20:40;3.95;;;3.30;;
41446;SDS011;27185;52.040;4.490;2023-05-10T09:23:26;5.75;;;4.20;;
41446;SDS011;27185;52.040;4.490;2023-05-10T09:26:17;6.50;;;5.45;;
41446;SDS011;27185;52.040;4.490;2023-05-10T09:29:07;7.00;;;5.32;;
41446;SDS011;27185;52.040;4.490;2023-05-10T09:31:53;7.80;;;5.35;;
41446;SDS011;27185;52.040;4.490;2023-05-10T09:34:41;8.05;;;5.25;;
41446;SDS011;27185;52.040;4.490;2023-05-10T09:37:30;7.95;;;5.90;;
41446;SDS011;27185;52.040;4.490;2023-05-10T09:40:17;8.02;;;4.97;;
41446;SDS011;27185;52.040;4.490;2023-05-10T09:45:52;9.45;;;6.07;;
41446;SDS011;27185;52.040;4.490;2023-05-10T09:48:42;8.25;;;5.05;;
41446;SDS011;27185;52.040;4.490;2023-05-10T09:51:32;7.72;;;4.72;;
41446;SDS011;27185;52.040;4.490;2023-05-10T09:54:19;8.43;;;5.13;;
41446;SDS011;27185;52.040;4.490;2023-05-10T09:57:06;7.53;;;4.63;;
41446;SDS011;27185;52.040;4.490;2023-05-10T10:00:05;8.52;;;4.45;;
41446;SDS011;27185;52.040;4.490;2023-05-10T10:02:55;4.93;;;3.05;;
41446;SDS011;27185;52.040;4.490;2023-05-10T10:05:42;5.53;;;3.75;;
41446;SDS011;27185;52.040;4.490;2023-05-10T10:08:29;7.65;;;3.65;;
41446;SDS011;27185;52.040;4.490;2023-05-10T10:11:14;7.30;;;3.50;;
41446;SDS011;27185;52.040;4.490;2023-05-10T10:14:01;6.85;;;3.78;;
41446;SDS011;27185;52.040;4.490;2023-05-10T10:16:46;6.85;;;4.18;;
41446;SDS011;27185;52.040;4.490;2023-05-10T10:19:34;8.80;;;4.43;;
41446;SDS011;27185;52.040;4.490;2023-05-10T10:22:22;11.63;;;5.13;;
41446;SDS011;27185;52.040;4.490;2023-05-10T10:25:08;10.93;;;6.40;;
41446;SDS011;27185;52.040;4.490;2023-05-10T10:28:10;9.93;;;5.78;;
41446;SDS011;27185;52.040;4.490;2023-05-10T10:31:23;11.43;;;6.43;;
41446;SDS011;27185;52.040;4.490;2023-05-10T10:34:11;10.60;;;5.90;;
41446;SDS011;27185;52.040;4.490;2023-05-10T10:37:13;11.80;;;6.57;;
41446;SDS011;27185;52.040;4.490;2023-05-10T10:39:58;14.80;;;7.43;;
41446;SDS011;27185;52.040;4.490;2023-05-10T10:42:44;9.05;;;6.05;;
41446;SDS011;27185;52.040;4.490;2023-05-10T10:45:38;9.73;;;6.03;;
41446;SDS011;27185;52.040;4.490;2023-05-10T10:48:24;10.43;;;7.32;;
41446;SDS011;27185;52.040;4.490;2023-05-10T10:51:10;11.10;;;7.18;;
41446;SDS011;27185;52.040;4.490;2023-05-10T10:54:08;9.02;;;6.32;;
41446;SDS011;27185;52.040;4.490;2023-05-10T10:57:10;7.75;;;5.85;;
41446;SDS011;27185;52.040;4.490;2023-05-10T11:03:13;5.95;;;4.53;;
41446;SDS011;27185;52.040;4.490;2023-05-10T11:06:03;7.72;;;5.10;;
41446;SDS011;27185;52.040;4.490;2023-05-10T11:08:49;7.13;;;5.13;;
41446;SDS011;27185;52.040;4.490;2023-05-10T11:11:53;7.05;;;4.78;;
41446;SDS011;27185;52.040;4.490;2023-05-10T11:14:43;7.30;;;5.07;;
41446;SDS011;27185;52.040;4.490;2023-05-10T11:17:34;7.10;;;5.25;;
41446;SDS011;27185;52.040;4.490;2023-05-10T11:20:20;5.80;;;4.40;;
41446;SDS011;27185;52.040;4.490;2023-05-10T11:23:13;8.73;;;5.30;;
41446;SDS011;27185;52.040;4.490;2023-05-10T11:26:00;6.65;;;5.80;;
41446;SDS011;27185;52.040;4.490;2023-05-10T11:28:47;9.23;;;6.15;;
41446;SDS011;27185;52.040;4.490;2023-05-10T11:31:33;6.33;;;5.33;;
41446;SDS011;27185;52.040;4.490;2023-05-10T11:34:23;9.82;;;6.32;;
41446;SDS011;27185;52.040;4.490;2023-05-10T11:37:09;7.43;;;6.53;;
41446;SDS011;27185;52.040;4.490;2023-05-10T11:39:55;9.38;;;7.03;;
41446;SDS011;27185;52.040;4.490;2023-05-10T11:42:40;7.97;;;6.25;;
41446;SDS011;27185;52.040;4.490;2023-05-10T11:45:26;7.43;;;5.43;;
41446;SDS011;27185;52.040;4.490;2023-05-10T11:48:13;6.82;;;5.93;;
41446;SDS011;27185;52.040;4.490;2023-05-10T11:51:01;6.85;;;4.35;;
41446;SDS011;27185;52.040;4.490;2023-05-10T11:53:47;7.18;;;4.82;;
41446;SDS011;27185;52.040;4.490;2023-05-10T11:56:39;6.35;;;5.10;;
41446;SDS011;27185;52.040;4.490;2023-05-10T11:59:25;8.38;;;5.18;;
41446;SDS011;27185;52.040;4.490;2023-05-10T12:02:11;9.32;;;4.97;;
41446;SDS011;27185;52.040;4.490;2023-05-10T12:04:58;7.43;;;4.57;;
41446;SDS011;27185;52.040;4.490;2023-05-10T12:07:44;8.73;;;4.43;;
41446;SDS011;27185;52.040;4.490;2023-05-10T12:10:29;7.45;;;4.28;;
41446;SDS011;27185;52.040;4.490;2023-05-10T12:13:20;9.48;;;4.57;;
41446;SDS011;27185;52.040;4.490;2023-05-10T12:16:15;7.57;;;4.32;;
41446;SDS011;27185;52.040;4.490;2023-05-10T12:19:05;9.15;;;4.43;;
41446;SDS011;27185;52.040;4.490;2023-05-10T12:21:51;7.10;;;3.92;;
41446;SDS011;27185;52.040;4.490;2023-05-10T12:24:36;7.13;;;4.68;;
41446;SDS011;27185;52.040;4.490;2023-05-10T12:27:23;5.82;;;4.00;;
41446;SDS011;27185;52.040;4.490;2023-05-10T12:30:09;6.55;;;4.22;;
41446;SDS011;27185;52.040;4.490;2023-05-10T12:33:02;7.65;;;4.50;;
41446;SDS011;27185;52.040;4.490;2023-05-10T12:35:58;9.43;;;5.50;;
41446;SDS011;27185;52.040;4.490;2023-05-10T12:38:44;8.93;;;5.13;;
41446;SDS011;27185;52.040;4.490;2023-05-10T12:41:33;12.00;;;6.38;;
41446;SDS011;27185;52.040;4.490;2023-05-10T12:44:18;10.75;;;6.30;;
41446;SDS011;27185;52.040;4.490;2023-05-10T12:47:04;8.93;;;6.53;;
41446;SDS011;27185;52.040;4.490;2023-05-10T12:49:50;10.73;;;5.72;;
41446;SDS011;27185;52.040;4.490;2023-05-10T12:52:36;9.27;;;5.45;;
41446;SDS011;27185;52.040;4.490;2023-05-10T12:55:22;7.03;;;5.20;;
41446;SDS011;27185;52.040;4.490;2023-05-10T12:58:07;8.50;;;5.72;;
41446;SDS011;27185;52.040;4.490;2023-05-10T13:00:53;8.13;;;5.22;;
41446;SDS011;27185;52.040;4.490;2023-05-10T13:03:38;7.88;;;5.32;;
41446;SDS011;27185;52.040;4.490;2023-05-10T13:06:24;8.00;;;5.18;;
41446;SDS011;27185;52.040;4.490;2023-05-10T13:09:10;7.63;;;5.20;;
41446;SDS011;27185;52.040;4.490;2023-05-10T13:11:55;6.20;;;4.60;;
41446;SDS011;27185;52.040;4.490;2023-05-10T13:14:41;6.90;;;4.82;;
41446;SDS011;27185;52.040;4.490;2023-05-10T13:17:27;6.57;;;4.18;;
41446;SDS011;27185;52.040;4.490;2023-05-10T13:20:12;7.05;;;4.35;;
41446;SDS011;27185;52.040;4.490;2023-05-10T13:22:58;7.10;;;3.50;;
41446;SDS011;27185;52.040;4.490;2023-05-10T13:25:43;6.88;;;4.30;;
41446;SDS011;27185;52.040;4.490;2023-05-10T13:28:29;7.35;;;4.25;;
41446;SDS011;27185;52.040;4.490;2023-05-10T13:31:15;6.28;;;4.45;;
41446;SDS011;27185;52.040;4.490;2023-05-10T13:34:00;8.88;;;5.03;;
41446;SDS011;27185;52.040;4.490;2023-05-10T13:36:47;5.55;;;3.80;;
41446;SDS011;27185;52.040;4.490;2023-05-10T13:39:33;5.32;;;3.97;;
41446;SDS011;27185;52.040;4.490;2023-05-10T13:42:19;5.95;;;3.35;;
41446;SDS011;27185;52.040;4.490;2023-05-10T13:45:05;5.93;;;3.28;;
41446;SDS011;27185;52.040;4.490;2023-05-10T13:47:51;5.72;;;3.13;;
41446;SDS011;27185;52.040;4.490;2023-05-10T13:50:36;6.05;;;3.35;;
41446;SDS011;27185;52.040;4.490;2023-05-10T13:53:23;5.10;;;3.25;;
41446;SDS011;27185;52.040;4.490;2023-05-10T13:56:09;4.38;;;2.78;;
41446;SDS011;27185;52.040;4.490;2023-05-10T13:58:55;4.70;;;3.13;;
41446;SDS011;27185;52.040;4.490;2023-05-10T14:01:42;4.90;;;3.17;;
41446;SDS011;27185;52.040;4.490;2023-05-10T14:04:28;5.57;;;3.30;;
41446;SDS011;27185;52.040;4.490;2023-05-10T14:07:15;5.25;;;3.30;;
41446;SDS011;27185;52.040;4.490;2023-05-10T14:10:00;4.88;;;2.97;;
41446;SDS011;27185;52.040;4.490;2023-05-10T14:12:46;4.57;;;3.25;;
41446;SDS011;27185;52.040;4.490;2023-05-10T14:15:31;5.63;;;3.08;;
41446;SDS011;27185;52.040;4.490;2023-05-10T14:18:17;4.32;;;3.05;;
41446;SDS011;27185;52.040;4.490;2023-05-10T14:21:03;7.32;;;4.13;;
41446;SDS011;27185;52.040;4.490;2023-05-10T14:23:48;6.00;;;3.80;;
41446;SDS011;27185;52.040;4.490;2023-05-10T14:26:34;6.93;;;3.92;;
41446;SDS011;27185;52.040;4.490;2023-05-10T14:29:20;10.32;;;4.18;;
41446;SDS011;27185;52.040;4.490;2023-05-10T14:32:06;5.95;;;3.63;;
41446;SDS011;27185;52.040;4.490;2023-05-10T14:34:33;5.60;;;2.95;;
41446;SDS011;27185;52.040;4.490;2023-05-10T14:37:18;4.57;;;2.75;;
41446;SDS011;27185;52.040;4.490;2023-05-10T14:40:04;3.92;;;2.83;;
41446;SDS011;27185;52.040;4.490;2023-05-10T14:42:51;4.50;;;2.95;;
41446;SDS011;27185;52.040;4.490;2023-05-10T14:45:37;5.10;;;2.67;;
41446;SDS011;27185;52.040;4.490;2023-05-10T14:48:23;4.90;;;3.15;;
41446;SDS011;27185;52.040;4.490;2023-05-10T14:51:09;4.63;;;3.08;;
41446;SDS011;27185;52.040;4.490;2023-05-10T14:53:55;4.60;;;3.10;;
41446;SDS011;27185;52.040;4.490;2023-05-10T14:56:41;5.13;;;3.53;;
41446;SDS011;27185;52.040;4.490;2023-05-10T14:59:26;4.97;;;3.28;;
41446;SDS011;27185;52.040;4.490;2023-05-10T15:02:12;4.78;;;3.10;;
41446;SDS011;27185;52.040;4.490;2023-05-10T15:04:58;4.32;;;3.17;;
41446;SDS011;27185;52.040;4.490;2023-05-10T15:07:43;4.63;;;3.28;;
41446;SDS011;27185;52.040;4.490;2023-05-10T15:10:29;4.43;;;3.05;;
41446;SDS011;27185;52.040;4.490;2023-05-10T15:13:15;3.88;;;2.72;;
41446;SDS011;27185;52.040;4.490;2023-05-10T15:16:01;3.63;;;2.42;;
41446;SDS011;27185;52.040;4.490;2023-05-10T15:18:46;2.72;;;2.30;;
41446;SDS011;27185;52.040;4.490;2023-05-10T15:21:33;3.05;;;2.17;;
41446;SDS011;27185;52.040;4.490;2023-05-10T15:24:23;3.22;;;2.40;;
41446;SDS011;27185;52.040;4.490;2023-05-10T15:27:09;4.82;;;2.35;;
41446;SDS011;27185;52.040;4.490;2023-05-10T15:29:55;3.53;;;2.35;;
41446;SDS011;27185;52.040;4.490;2023-05-10T15:32:40;3.05;;;2.03;;
41446;SDS011;27185;52.040;4.490;2023-05-10T15:35:27;3.95;;;2.28;;
41446;SDS011;27185;52.040;4.490;2023-05-10T15:38:13;3.95;;;1.95;;
41446;SDS011;27185;52.040;4.490;2023-05-10T15:40:59;3.45;;;1.83;;
41446;SDS011;27185;52.040;4.490;2023-05-10T15:43:44;2.38;;;1.35;;
41446;SDS011;27185;52.040;4.490;2023-05-10T15:46:30;3.22;;;2.03;;
41446;SDS011;27185;52.040;4.490;2023-05-10T15:49:15;2.90;;;2.00;;
41446;SDS011;27185;52.040;4.490;2023-05-10T15:52:01;2.33;;;1.67;;
41446;SDS011;27185;52.040;4.490;2023-05-10T15:54:47;3.42;;;1.77;;
41446;SDS011;27185;52.040;4.490;2023-05-10T15:57:32;3.95;;;2.00;;
41446;SDS011;27185;52.040;4.490;2023-05-10T16:00:18;4.38;;;1.80;;
41446;SDS011;27185;52.040;4.490;2023-05-10T16:03:03;2.97;;;1.70;;
41446;SDS011;27185;52.040;4.490;2023-05-10T16:05:50;2.97;;;1.70;;
41446;SDS011;27185;52.040;4.490;2023-05-10T16:08:36;3.13;;;1.50;;
41446;SDS011;27185;52.040;4.490;2023-05-10T16:11:21;4.07;;;1.98;;
41446;SDS011;27185;52.040;4.490;2023-05-10T16:14:07;3.30;;;2.00;;
41446;SDS011;27185;52.040;4.490;2023-05-10T16:16:52;4.38;;;3.38;;
41446;SDS011;27185;52.040;4.490;2023-05-10T16:19:38;6.78;;;4.60;;
41446;SDS011;27185;52.040;4.490;2023-05-10T16:22:24;5.35;;;4.22;;
41446;SDS011;27185;52.040;4.490;2023-05-10T16:25:11;7.47;;;4.85;;
41446;SDS011;27185;52.040;4.490;2023-05-10T16:27:57;5.18;;;4.22;;
41446;SDS011;27185;52.040;4.490;2023-05-10T16:30:42;6.07;;;4.45;;
41446;SDS011;27185;52.040;4.490;2023-05-10T16:33:28;6.28;;;4.43;;
41446;SDS011;27185;52.040;4.490;2023-05-10T16:36:14;6.93;;;5.13;;
41446;SDS011;27185;52.040;4.490;2023-05-10T16:38:59;6.63;;;4.57;;
41446;SDS011;27185;52.040;4.490;2023-05-10T16:41:45;6.38;;;4.90;;
41446;SDS011;27185;52.040;4.490;2023-05-10T16:44:31;6.53;;;5.03;;
41446;SDS011;27185;52.040;4.490;2023-05-10T16:47:17;7.80;;;5.78;;
41446;SDS011;27185;52.040;4.490;2023-05-10T16:50:03;8.38;;;5.90;;
41446;SDS011;27185;52.040;4.490;2023-05-10T16:52:49;6.57;;;4.68;;
41446;SDS011;27185;52.040;4.490;2023-05-10T16:55:35;7.28;;;5.22;;
41446;SDS011;27185;52.040;4.490;2023-05-10T16:58:20;7.30;;;4.65;;